Time;durP1;ratioP1;P1;durP2;ratioP2;P2;SDS_P1;SDS_P2;PMS_P1;PMS_P2;Temp;Humidity;BMP_temperature;BMP_pressure;BME280_temperature;BME280_humidity;BME280_pressure;Samples;Min_cycle;Max_cycle;Signal;HPM_P1;HPM_P2
2022/05/05 00:00:21;;;;;;;30.20;17.40;;;;;;;4.43;84.99;95014.53;1680174;85;21156;-52
2022/05/05 00:02:48;;;;;;;33.23;20.00;;;;;;;4.36;84.73;95020.05;1680206;85;21054;-51
2022/05/05 00:05:14;;;;;;;30.45;20.68;;;;;;;4.29;84.95;95013.88;1680191;85;21506;-52
2022/05/05 00:07:41;;;;;;;26.85;16.15;;;;;;;4.25;84.85;95009.80;1683688;84;21089;-51
2022/05/05 00:15:39;;;;;;;35.98;20.92;;;;;;;4.12;85.07;95010.11;1696999;83;21003;-52
2022/05/05 00:18:06;;;;;;;32.23;20.17;;;;;;;4.09;85.37;95016.33;1652221;86;21558;-51
2022/05/05 00:20:33;;;;;;;31.97;19.40;;;;;;;4.08;85.64;95016.14;1651877;87;20962;-50
2022/05/05 00:22:59;;;;;;;23.05;17.07;;;;;;;4.06;85.70;95019.86;1682548;83;21478;-52
2022/05/05 00:25:26;;;;;;;27.82;16.30;;;;;;;4.07;85.80;95014.59;1668604;85;21514;-50
2022/05/05 00:27:52;;;;;;;25.80;15.03;;;;;;;4.05;85.62;95014.83;1651639;87;21121;-50
2022/05/05 00:30:19;;;;;;;26.77;17.00;;;;;;;4.06;85.62;95019.09;1651647;86;20983;-53
2022/05/05 00:32:46;;;;;;;32.98;18.45;;;;;;;4.06;85.73;95013.05;1651566;86;21569;-52
2022/05/05 00:35:13;;;;;;;25.23;18.57;;;;;;;4.09;85.97;95015.58;1671647;83;21014;-51
2022/05/05 00:37:40;;;;;;;25.20;16.32;;;;;;;4.09;85.79;95016.33;1685955;85;21426;-51
2022/05/05 00:40:09;;;;;;;27.77;18.07;;;;;;;4.10;85.54;95013.03;1685596;85;21074;-51
2022/05/05 00:42:36;;;;;;;27.05;17.32;;;;;;;4.12;85.68;95019.64;1685669;85;21013;-51
2022/05/05 00:45:03;;;;;;;30.17;20.15;;;;;;;4.14;85.48;95022.73;1663859;85;21034;-52
2022/05/05 00:47:30;;;;;;;25.35;16.57;;;;;;;4.15;85.41;95019.41;1686505;83;21026;-52
2022/05/05 00:49:59;;;;;;;23.25;16.80;;;;;;;4.11;85.20;95023.54;1687173;85;21256;-52
2022/05/05 00:52:27;;;;;;;26.97;16.82;;;;;;;4.05;84.96;95025.11;1687005;85;21002;-52
2022/05/05 00:54:56;;;;;;;22.25;15.18;;;;;;;4.00;84.88;95024.75;1686753;83;21064;-50
2022/05/05 00:57:23;;;;;;;34.38;19.90;;;;;;;3.96;84.96;95024.80;1686947;85;21035;-52
2022/05/05 00:59:51;;;;;;;26.48;17.55;;;;;;;3.95;85.05;95031.41;1686788;85;21093;-52
2022/05/05 01:02:18;;;;;;;33.50;21.55;;;;;;;3.91;85.21;95035.31;1687154;85;21281;-51
2022/05/05 01:04:46;;;;;;;32.45;20.27;;;;;;;3.86;85.32;95033.78;1687371;85;21541;-51
2022/05/05 01:07:15;;;;;;;27.50;18.87;;;;;;;3.80;85.39;95029.94;1687059;85;21029;-50
2022/05/05 01:09:41;;;;;;;26.07;16.50;;;;;;;3.75;85.53;95030.93;1687205;85;21462;-52
2022/05/05 01:12:09;;;;;;;40.70;20.15;;;;;;;3.74;85.86;95033.46;1686759;83;21056;-50
2022/05/05 01:14:36;;;;;;;33.40;20.52;;;;;;;3.73;85.89;95036.75;1687609;85;21105;-51
2022/05/05 01:17:03;;;;;;;44.83;22.70;;;;;;;3.72;86.07;95037.16;1686881;85;20974;-54
2022/05/05 01:19:31;;;;;;;39.83;23.90;;;;;;;3.67;86.25;95041.07;1687084;85;21085;-53
2022/05/05 01:21:57;;;;;;;58.90;27.93;;;;;;;3.66;86.40;95036.80;1687044;85;21065;-51
2022/05/05 01:29:56;;;;;;;49.73;27.55;;;;;;;3.67;86.61;95043.79;1715847;83;20976;-50
2022/05/05 01:32:23;;;;;;;36.68;22.48;;;;;;;3.71;86.85;95051.94;1715806;83;20934;-51
2022/05/05 01:34:49;;;;;;;40.30;24.65;;;;;;;3.75;86.82;95044.53;1693250;83;20996;-52
2022/05/05 01:37:16;;;;;;;39.25;23.40;;;;;;;3.74;86.58;95046.50;1715851;83;21024;-53
2022/05/05 01:39:44;;;;;;;38.15;22.22;;;;;;;3.75;86.40;95045.32;1715854;83;21169;-53
2022/05/05 01:42:10;;;;;;;34.48;21.55;;;;;;;3.74;86.23;95046.50;1715615;83;20930;-52
2022/05/05 01:44:37;;;;;;;27.73;16.32;;;;;;;3.75;86.28;95049.97;1716122;83;21508;-51
2022/05/05 01:47:04;;;;;;;33.45;22.05;;;;;;;3.74;86.08;95047.06;1705519;83;21065;-52
2022/05/05 01:49:31;;;;;;;34.98;21.70;;;;;;;3.67;85.99;95051.19;1685500;85;21478;-51
2022/05/05 01:51:58;;;;;;;34.00;20.62;;;;;;;3.60;86.23;95045.77;1685461;85;21150;-51
2022/05/05 01:54:25;;;;;;;29.80;17.92;;;;;;;3.57;86.33;95047.92;1685455;85;21069;-52
2022/05/05 01:56:52;;;;;;;27.87;17.23;;;;;;;3.56;86.40;95051.23;1685633;85;21022;-52
2022/05/05 01:59:19;;;;;;;30.10;18.27;;;;;;;3.57;86.77;95049.28;1685321;83;21001;-51
2022/05/05 02:01:45;;;;;;;28.15;17.60;;;;;;;3.56;86.57;95047.73;1685630;85;21131;-51
2022/05/05 02:04:12;;;;;;;32.48;17.87;;;;;;;3.50;86.53;95044.64;1685688;85;21235;-52
2022/05/05 02:06:38;;;;;;;25.68;16.77;;;;;;;3.46;86.60;95045.81;1685664;85;21007;-51
2022/05/05 02:09:05;;;;;;;23.70;16.95;;;;;;;3.47;86.54;95044.67;1680438;84;21031;-52
2022/05/05 02:11:32;;;;;;;24.30;16.20;;;;;;;3.48;86.61;95045.43;1694153;84;20941;-52
2022/05/05 02:13:59;;;;;;;26.00;16.48;;;;;;;3.49;86.60;95037.65;1710315;84;20988;-52
2022/05/05 02:16:26;;;;;;;26.90;17.48;;;;;;;3.50;86.63;95039.20;1692756;84;21334;-52
2022/05/05 02:18:52;;;;;;;28.65;17.48;;;;;;;3.49;86.62;95042.33;1681637;85;21057;-52
2022/05/05 02:21:19;;;;;;;23.87;14.55;;;;;;;3.50;86.72;95042.52;1681752;85;21033;-50
2022/05/05 02:23:46;;;;;;;34.48;17.23;;;;;;;3.44;86.28;95044.07;1680911;84;21018;-51
2022/05/05 02:26:12;;;;;;;36.98;19.67;;;;;;;3.41;86.31;95045.47;1652504;85;20970;-52
2022/05/05 02:28:40;;;;;;;23.70;16.00;;;;;;;3.40;86.43;95046.64;1646493;87;21097;-49
2022/05/05 02:31:06;;;;;;;36.58;17.55;;;;;;;3.33;86.29;95044.72;1688011;84;20988;-51
2022/05/05 02:33:33;;;;;;;37.60;21.05;;;;;;;3.26;86.38;95056.95;1710155;84;21051;-51
2022/05/05 02:38:47;;;;;;;40.43;18.85;;;;;;;3.22;86.88;95059.51;1680587;85;21502;-51
2022/05/05 02:41:13;;;;;;;40.78;21.40;;;;;;;3.20;86.98;95055.05;1680057;85;21164;-50
2022/05/05 02:43:40;;;;;;;30.92;17.17;;;;;;;3.19;87.07;95054.83;1680247;85;21006;-52
2022/05/05 02:46:07;;;;;;;22.42;14.53;;;;;;;3.19;87.24;95049.39;1679947;85;21089;-50
2022/05/05 02:48:33;;;;;;;18.73;14.00;;;;;;;3.15;87.08;95049.42;1680529;84;21435;-51
2022/05/05 02:51:00;;;;;;;18.80;13.00;;;;;;;3.11;86.92;95054.67;1680349;85;20995;-52
2022/05/05 02:56:12;;;;;;;18.37;12.85;;;;;;;3.08;86.61;95064.97;1680185;85;21463;-51
2022/05/05 02:58:38;;;;;;;23.40;14.87;;;;;;;3.08;86.67;95066.33;1679929;85;21018;-52
2022/05/05 03:01:05;;;;;;;19.52;13.98;;;;;;;3.09;87.00;95065.92;1696998;84;21513;-53
2022/05/05 03:03:33;;;;;;;19.07;14.15;;;;;;;3.16;87.14;95069.21;1687133;84;20974;-52
2022/05/05 03:06:01;;;;;;;28.32;16.48;;;;;;;3.17;86.70;95067.47;1681886;85;21237;-51
2022/05/05 03:08:27;;;;;;;27.50;17.07;;;;;;;3.20;86.71;95072.13;1681364;84;21518;-52
2022/05/05 03:10:55;;;;;;;45.75;19.35;;;;;;;3.26;86.70;95076.58;1681662;84;21010;-51
2022/05/05 03:13:21;;;;;;;35.05;17.15;;;;;;;3.30;86.70;95079.48;1681433;85;21014;-52
2022/05/05 03:15:48;;;;;;;34.98;17.45;;;;;;;3.31;86.79;95082.97;1681910;84;21510;-50
2022/05/05 03:18:14;;;;;;;26.73;13.65;;;;;;;3.33;87.03;95080.62;1681854;85;21119;-52
2022/05/05 03:20:42;;;;;;;21.70;14.60;;;;;;;3.31;86.79;95081.61;1681687;85;20966;-53
2022/05/05 03:23:09;;;;;;;20.88;12.98;;;;;;;3.27;86.65;95078.89;1681707;84;20981;-50
2022/05/05 03:25:37;;;;;;;21.62;13.50;;;;;;;3.27;86.57;95084.92;1681655;84;21609;-51
2022/05/05 03:28:04;;;;;;;23.90;15.83;;;;;;;3.30;86.61;95084.13;1681879;85;21073;-52
2022/05/05 03:30:32;;;;;;;25.80;15.90;;;;;;;3.35;86.85;95080.44;1681656;85;21159;-50
2022/05/05 03:32:58;;;;;;;23.20;15.70;;;;;;;3.44;86.90;95086.22;1681542;85;20986;-52
2022/05/05 03:35:25;;;;;;;24.65;15.75;;;;;;;3.47;86.38;95087.39;1696018;84;21042;-51
2022/05/05 03:37:52;;;;;;;29.15;14.85;;;;;;;3.47;86.00;95087.39;1680192;85;20987;-52
2022/05/05 03:40:18;;;;;;;31.65;16.52;;;;;;;3.49;85.84;95094.76;1680294;85;20982;-51
2022/05/05 03:42:45;;;;;;;36.80;14.53;;;;;;;3.54;85.86;95099.78;1680344;85;21835;-52
2022/05/05 03:45:11;;;;;;;32.17;15.15;;;;;;;3.58;85.68;95089.70;1680329;85;21653;-52
2022/05/05 03:47:38;;;;;;;24.70;13.25;;;;;;;3.59;85.70;95093.97;1679973;85;21510;-50
2022/05/05 03:50:07;;;;;;;24.45;14.45;;;;;;;3.60;85.60;95094.72;1680361;85;21073;-51
2022/05/05 03:52:34;;;;;;;31.00;17.60;;;;;;;3.61;85.75;95096.27;1680054;85;21061;-51
2022/05/05 03:55:01;;;;;;;30.82;18.55;;;;;;;3.57;85.56;95101.75;1680369;85;21823;-51
2022/05/05 03:57:28;;;;;;;36.38;21.25;;;;;;;3.57;85.85;95104.46;1680078;85;21487;-53
2022/05/05 03:59:54;;;;;;;40.05;21.07;;;;;;;3.59;86.13;95102.69;1680605;84;21073;-53
2022/05/05 04:02:21;;;;;;;32.88;19.32;;;;;;;3.62;85.97;95110.06;1681869;85;21029;-52
2022/05/05 04:04:47;;;;;;;44.27;19.95;;;;;;;3.58;85.77;95108.73;1681673;85;21030;-53
2022/05/05 04:07:14;;;;;;;33.80;18.95;;;;;;;3.56;85.95;95103.48;1681525;85;21241;-52
2022/05/05 04:09:41;;;;;;;28.52;18.40;;;;;;;3.61;86.06;95104.43;1660562;85;20970;-51
2022/05/05 04:12:09;;;;;;;32.95;19.90;;;;;;;3.62;85.87;95097.25;1683666;83;21493;-55
2022/05/05 04:14:36;;;;;;;35.00;20.08;;;;;;;3.68;86.01;95107.15;1683251;85;21014;-53
2022/05/05 04:17:04;;;;;;;39.85;21.85;;;;;;;3.71;86.32;95102.27;1653600;85;21006;-51
2022/05/05 04:19:31;;;;;;;32.05;18.52;;;;;;;3.81;86.71;95102.23;1649201;86;21193;-52
2022/05/05 04:21:57;;;;;;;39.18;19.52;;;;;;;3.94;87.13;95097.11;1649176;87;21105;-53
2022/05/05 04:24:24;;;;;;;34.05;18.67;;;;;;;4.07;87.05;95098.22;1674348;83;21020;-52
2022/05/05 04:26:51;;;;;;;24.77;15.83;;;;;;;4.19;87.03;95108.06;1649288;87;21466;-53
2022/05/05 04:29:18;;;;;;;32.70;17.52;;;;;;;4.39;86.99;95100.19;1649117;87;21018;-52
2022/05/05 04:31:44;;;;;;;31.10;18.82;;;;;;;4.54;86.30;95098.89;1626514;87;21146;-53
2022/05/05 04:34:11;;;;;;;28.47;17.50;;;;;;;4.59;85.60;95108.78;1648743;86;20980;-53
2022/05/05 04:36:38;;;;;;;31.17;19.32;;;;;;;4.60;85.23;95104.88;1668043;83;21037;-57
2022/05/05 04:39:06;;;;;;;31.37;17.30;;;;;;;4.60;85.21;95100.80;1684372;83;21023;-58
2022/05/05 04:41:33;;;;;;;23.32;14.20;;;;;;;4.63;85.14;95105.44;1684523;85;20989;-53
2022/05/05 04:44:00;;;;;;;29.52;16.95;;;;;;;4.70;85.32;95107.34;1684462;85;21828;-53
2022/05/05 04:46:26;;;;;;;23.57;14.45;;;;;;;4.75;84.97;95099.52;1684216;85;21595;-54
2022/05/05 04:48:53;;;;;;;23.73;14.60;;;;;;;4.76;84.88;95103.80;1684146;83;21049;-52
2022/05/05 04:51:20;;;;;;;32.08;17.23;;;;;;;4.75;84.75;95110.42;1684486;85;21479;-52
2022/05/05 04:53:46;;;;;;;25.82;15.80;;;;;;;4.74;84.91;95107.52;1684185;85;21077;-50
2022/05/05 04:56:14;;;;;;;22.22;15.18;;;;;;;4.84;85.41;95099.86;1684349;84;21049;-52
2022/05/05 04:58:42;;;;;;;21.68;14.90;;;;;;;4.94;85.03;95104.43;1684238;85;20974;-52
2022/05/05 05:01:08;;;;;;;19.85;15.32;;;;;;;5.09;85.25;95103.71;1684037;83;21078;-51
2022/05/05 05:03:36;;;;;;;17.52;12.95;;;;;;;5.23;85.07;95108.47;1684865;85;21108;-52
2022/05/05 05:06:08;;;;;;;16.48;10.45;;;;;;;5.36;84.69;95106.77;1684410;85;21014;-51
2022/05/05 05:08:37;;;;;;;;;;;;;;;5.44;84.32;95105.53;1687982;84;21104;-50
2022/05/05 05:11:04;;;;;;;12.65;8.60;;;;;;;5.51;83.53;95109.54;1700850;83;20189;-51
2022/05/05 05:13:30;;;;;;;13.53;8.80;;;;;;;5.59;83.12;95100.87;1692326;83;21065;-52
2022/05/05 05:15:57;;;;;;;15.38;10.82;;;;;;;5.75;82.66;95101.69;1687122;83;21068;-54
2022/05/05 05:18:25;;;;;;;15.03;10.40;;;;;;;5.92;81.95;95106.96;1686185;85;21129;-52
2022/05/05 05:20:52;;;;;;;16.82;10.55;;;;;;;6.10;81.30;95104.79;1684314;85;21093;-56
2022/05/05 05:23:19;;;;;;;20.02;11.43;;;;;;;6.25;80.85;95100.69;1679945;85;21032;-56
2022/05/05 05:25:46;;;;;;;14.13;10.53;;;;;;;6.42;80.19;95092.06;1677237;83;21042;-56
2022/05/05 05:28:13;;;;;;;16.20;10.90;;;;;;;6.61;79.84;95091.39;1695852;83;21124;-54
2022/05/05 05:30:40;;;;;;;15.68;12.07;;;;;;;6.74;79.00;95084.94;1685517;83;21537;-53
2022/05/05 05:33:07;;;;;;;15.10;10.90;;;;;;;6.84;78.24;95089.48;1676060;83;21153;-54
2022/05/05 05:35:34;;;;;;;16.20;11.78;;;;;;;6.90;77.84;95085.69;1685249;83;21505;-53
2022/05/05 05:38:03;;;;;;;16.05;11.80;;;;;;;6.96;77.70;95088.91;1687726;83;21095;-52
2022/05/05 05:40:29;;;;;;;12.98;11.35;;;;;;;7.05;77.40;95083.66;1685819;85;20990;-54
2022/05/05 05:42:56;;;;;;;14.47;10.35;;;;;;;7.13;77.18;95085.86;1683210;83;21025;-54
2022/05/05 05:45:24;;;;;;;20.65;13.18;;;;;;;7.22;76.99;95086.11;1687225;83;21825;-53
2022/05/05 05:47:51;;;;;;;28.70;11.05;;;;;;;7.33;76.60;95090.78;1690090;83;21069;-54
2022/05/05 05:50:17;;;;;;;22.15;10.98;;;;;;;7.42;76.33;95084.19;1687849;83;21472;-55
2022/05/05 05:52:44;;;;;;;13.48;10.58;;;;;;;7.54;76.32;95084.17;1683799;83;21101;-55
2022/05/05 05:55:11;;;;;;;14.20;9.65;;;;;;;7.67;75.82;95077.66;1693804;83;21131;-54
2022/05/05 05:57:39;;;;;;;12.50;10.25;;;;;;;7.75;75.41;95075.55;1683379;85;21115;-55
2022/05/05 06:00:06;;;;;;;14.38;9.03;;;;;;;7.85;75.10;95077.33;1684222;83;20933;-55
2022/05/05 06:05:21;;;;;;;12.98;10.40;;;;;;;8.10;74.36;95079.71;1682835;83;21025;-53
2022/05/05 06:07:48;;;;;;;13.10;9.10;;;;;;;8.33;74.03;95079.67;1679108;83;21104;-61
2022/05/05 06:10:18;;;;;;;10.28;8.95;;;;;;;8.55;73.41;95078.00;1684888;84;21850;-55
2022/05/05 06:12:47;;;;;;;11.33;8.58;;;;;;;8.74;72.65;95079.91;1680615;84;21092;-54
2022/05/05 06:15:15;;;;;;;13.58;8.85;;;;;;;8.90;71.98;95081.30;1674981;84;21022;-54
2022/05/05 06:17:42;;;;;;;12.95;9.93;;;;;;;9.04;71.20;95074.11;1673580;84;20981;-57
2022/05/05 06:20:11;;;;;;;19.82;11.38;;;;;;;9.19;70.98;95077.44;1677115;84;21057;-56
2022/05/05 06:22:39;;;;;;;18.27;11.00;;;;;;;9.33;70.62;95077.68;1645306;86;21238;-54
2022/05/05 06:25:07;;;;;;;18.80;10.95;;;;;;;9.51;70.50;95080.16;1672981;84;21065;-53
2022/05/05 06:27:34;;;;;;;19.07;10.72;;;;;;;9.66;69.76;95077.80;1673685;84;20982;-55
2022/05/05 06:30:03;;;;;;;11.93;8.60;;;;;;;9.83;69.30;95087.55;1673219;84;21050;-54
2022/05/05 06:32:30;;;;;;;10.05;8.78;;;;;;;9.99;68.80;95082.00;1675391;85;21589;-51
2022/05/05 06:34:57;;;;;;;10.08;8.00;;;;;;;10.09;68.49;95081.73;1676950;85;21507;-53
2022/05/05 06:37:24;;;;;;;13.15;8.68;;;;;;;10.23;67.96;95073.69;1679230;84;21090;-56
2022/05/05 06:39:51;;;;;;;14.98;8.58;;;;;;;10.34;67.46;95072.78;1676312;85;21080;-55
2022/05/05 06:42:18;;;;;;;11.90;8.43;;;;;;;10.46;66.77;95072.02;1675186;84;21056;-53
2022/05/05 06:44:45;;;;;;;11.97;7.87;;;;;;;10.56;66.56;95068.19;1676950;84;21024;-54
2022/05/05 06:47:11;;;;;;;13.55;8.05;;;;;;;10.68;65.95;95064.06;1669566;84;21134;-53
2022/05/05 06:49:39;;;;;;;12.25;7.65;;;;;;;10.85;65.31;95064.91;1673845;84;21065;-54
2022/05/05 06:52:07;;;;;;;21.95;8.00;;;;;;;11.00;64.36;95063.23;1678644;84;21604;-57
2022/05/05 06:54:35;;;;;;;9.45;7.45;;;;;;;11.16;63.81;95069.23;1679469;84;21065;-52
2022/05/05 06:57:02;;;;;;;9.15;7.22;;;;;;;11.31;62.81;95066.94;1675674;84;22071;-54
2022/05/05 06:59:30;;;;;;;8.98;7.10;;;;;;;11.47;62.58;95066.80;1683371;84;21253;-54
2022/05/05 07:02:02;;;;;;;14.10;7.65;;;;;;;11.64;62.05;95061.92;1674584;84;21062;-59
2022/05/05 07:07:17;;;;;;;10.45;7.05;;;;;;;12.06;62.17;95057.06;1669698;84;21618;-56
2022/05/05 07:12:31;;;;;;;9.30;6.85;;;;;;;12.46;61.69;95061.32;1668854;85;21253;-54
2022/05/05 07:15:00;;;;;;;9.78;6.78;;;;;;;12.68;61.80;95050.41;1665447;84;21056;-54
2022/05/05 07:17:27;;;;;;;12.00;6.62;;;;;;;12.86;61.32;95051.88;1673676;84;22218;-55
2022/05/05 07:19:54;;;;;;;14.43;6.62;;;;;;;13.04;61.15;95053.35;1663497;84;21096;-56
2022/05/05 07:22:21;;;;;;;11.10;7.22;;;;;;;13.20;60.90;95048.92;1672029;84;21485;-55
2022/05/05 07:24:48;;;;;;;11.10;7.12;;;;;;;13.41;60.49;95052.23;1658051;84;21160;-56
2022/05/05 07:27:15;;;;;;;15.72;7.05;;;;;;;13.63;59.78;95059.78;1675855;84;21100;-55
2022/05/05 07:29:41;;;;;;;8.73;6.65;;;;;;;13.82;59.72;95062.09;1672947;84;21057;-54
2022/05/05 07:32:09;;;;;;;9.38;6.22;;;;;;;14.02;59.03;95060.27;1672224;84;21580;-53
2022/05/05 07:34:36;;;;;;;7.45;5.53;;;;;;;14.21;58.69;95056.30;1674600;84;21148;-54
2022/05/05 07:37:03;;;;;;;8.65;5.67;;;;;;;14.38;58.09;95050.58;1676630;84;22120;-53
2022/05/05 07:39:30;;;;;;;8.30;5.75;;;;;;;14.50;56.96;95052.56;1665243;84;21045;-55
2022/05/05 07:41:57;;;;;;;15.18;5.65;;;;;;;14.69;56.50;95047.14;1674859;84;20998;-56
2022/05/05 07:44:23;;;;;;;8.05;6.47;;;;;;;14.84;56.73;95046.60;1684986;84;21010;-54
2022/05/05 07:46:52;;;;;;;9.25;5.12;;;;;;;15.03;56.05;95053.61;1679954;84;21025;-53
2022/05/05 07:49:19;;;;;;;11.90;5.67;;;;;;;15.21;56.09;95046.60;1683822;84;21145;-52
2022/05/05 07:51:50;;;;;;;11.18;5.42;;;;;;;15.34;55.93;95038.87;1672981;85;21564;-58
2022/05/05 07:57:02;;;;;;;7.58;5.40;;;;;;;15.64;54.28;95041.16;1674488;84;21039;-58
2022/05/05 07:59:30;;;;;;;10.05;5.50;;;;;;;15.82;54.86;95039.64;1679011;84;21564;-59
2022/05/05 08:01:58;;;;;;;11.78;5.70;;;;;;;15.98;54.40;95034.45;1668558;84;21245;-58
2022/05/05 08:04:25;;;;;;;8.88;5.05;;;;;;;16.09;53.76;95033.25;1685937;84;21112;-60
2022/05/05 08:07:06;;;;;;;11.73;6.03;;;;;;;16.21;52.50;95039.17;1675723;83;41973;-61
2022/05/05 08:09:39;;;;;;;6.58;5.15;;;;;;;16.34;52.20;95027.97;1676464;84;21529;-54
2022/05/05 08:12:08;;;;;;;13.13;4.83;;;;;;;16.55;51.99;95028.86;1669403;84;21107;-57
2022/05/05 08:14:36;;;;;;;11.63;4.85;;;;;;;16.72;50.69;95018.16;1682546;84;21225;-56
2022/05/05 08:17:04;;;;;;;13.03;6.50;;;;;;;16.90;50.14;95026.94;1645406;84;21507;-60
2022/05/05 08:19:31;;;;;;;5.87;4.50;;;;;;;17.05;47.67;95030.44;1680852;84;21085;-54
2022/05/05 08:21:58;;;;;;;6.58;4.22;;;;;;;17.20;47.42;95027.01;1681535;84;21069;-59
2022/05/05 08:29:51;;;;;;;8.10;3.85;;;;;;;17.51;45.09;95024.47;1673057;84;21053;-55
2022/05/05 08:32:18;;;;;;;8.03;4.37;;;;;;;17.62;43.58;95023.23;1677814;84;21664;-55
2022/05/05 08:34:46;;;;;;;7.47;4.17;;;;;;;17.73;44.02;95024.77;1681206;84;21141;-54
2022/05/05 08:37:12;;;;;;;4.10;3.60;;;;;;;17.82;42.10;95026.03;1679024;84;21076;-55
2022/05/05 08:39:39;;;;;;;5.62;4.08;;;;;;;17.86;41.79;95029.36;1675717;84;21085;-58
2022/05/05 08:42:08;;;;;;;5.65;4.55;;;;;;;17.87;41.75;95023.32;1671392;85;21068;-56
2022/05/05 08:44:35;;;;;;;8.08;4.53;;;;;;;17.92;41.79;95024.63;1675217;84;21117;-55
2022/05/05 08:47:02;;;;;;;6.53;4.40;;;;;;;17.99;41.29;95021.44;1678659;84;21064;-56
2022/05/05 08:49:29;;;;;;;4.92;4.10;;;;;;;18.04;43.25;95020.09;1669797;84;21102;-56
2022/05/05 08:52:17;;;;;;;7.08;4.15;;;;;;;18.17;42.94;95029.50;1669831;84;21096;-56
2022/05/05 08:54:44;;;;;;;6.05;4.37;;;;;;;18.31;41.06;95020.43;1675035;84;21097;-55
2022/05/05 08:57:11;;;;;;;8.50;5.00;;;;;;;18.45;41.61;95025.14;1679636;84;21065;-54
2022/05/05 08:59:39;;;;;;;8.23;4.05;;;;;;;18.54;40.15;95026.39;1677649;84;21042;-55
2022/05/05 09:02:07;;;;;;;4.75;3.90;;;;;;;18.66;42.46;95025.22;1680829;84;21109;-54
2022/05/05 09:04:35;;;;;;;6.37;4.72;;;;;;;18.83;38.90;95024.75;1672979;84;21371;-53
2022/05/05 09:07:03;;;;;;;5.35;3.80;;;;;;;18.88;37.88;95022.66;1678541;84;21109;-53
2022/05/05 09:09:35;;;;;;;8.25;3.92;;;;;;;18.87;37.71;95024.53;1681528;83;21939;-54
2022/05/05 09:12:13;;;;;;;8.43;3.85;;;;;;;18.86;38.11;95025.16;1685847;83;21025;-54
2022/05/05 09:14:55;;;;;;;5.25;3.80;;;;;;;18.98;38.70;95030.97;1684627;83;21042;-59
2022/05/05 09:17:32;;;;;;;6.08;3.77;;;;;;;19.14;37.57;95020.58;1683308;83;21827;-57
2022/05/05 09:19:59;;;;;;;11.03;3.58;;;;;;;19.15;37.14;95020.71;1684752;83;21546;-57
2022/05/05 09:22:29;;;;;;;6.45;3.55;;;;;;;19.16;38.55;95017.30;1630519;83;21619;-52
2022/05/05 09:24:57;;;;;;;5.70;4.08;;;;;;;19.34;38.80;95017.70;1687536;83;21065;-57
2022/05/05 09:27:31;;;;;;;4.95;4.25;;;;;;;19.53;39.21;95012.52;1695020;83;21906;-55
2022/05/05 09:30:05;;;;;;;5.37;3.72;;;;;;;19.68;39.40;95013.09;1664529;83;23024;-56
2022/05/05 09:32:47;;;;;;;4.75;3.83;;;;;;;19.85;39.71;95014.72;1664218;85;21056;-56
2022/05/05 09:35:16;;;;;;;8.48;3.92;;;;;;;19.99;38.52;95011.59;1662801;83;21620;-55
2022/05/05 09:37:47;;;;;;;5.28;3.45;;;;;;;20.16;39.28;95007.64;1684100;83;21048;-55
2022/05/05 09:40:26;;;;;;;6.65;4.42;;;;;;;20.25;38.09;95010.20;1685672;83;21068;-58
2022/05/05 09:42:53;;;;;;;4.90;3.85;;;;;;;20.29;37.45;95017.09;1684200;83;21466;-56
2022/05/05 09:45:33;;;;;;;6.10;3.20;;;;;;;20.38;37.17;95016.84;1679122;83;21025;-54
2022/05/05 09:48:01;;;;;;;5.37;3.40;;;;;;;20.46;39.42;95015.10;1688717;83;21482;-56
2022/05/05 09:50:30;;;;;;;4.60;3.65;;;;;;;20.57;36.87;95009.52;1684262;83;21112;-55
2022/05/05 09:58:38;;;;;;;4.62;3.42;;;;;;;20.94;34.58;95012.90;1682642;83;21032;-57
2022/05/05 10:01:09;;;;;;;6.50;4.00;;;;;;;20.85;33.46;95005.39;1681901;83;20986;-55
2022/05/05 10:04:03;;;;;;;6.03;3.23;;;;;;;20.72;33.19;95000.92;1681743;83;21745;-56
2022/05/05 10:06:34;;;;;;;4.85;3.55;;;;;;;20.68;33.80;94996.97;1689566;83;21076;-56
2022/05/05 10:09:05;;;;;;;6.33;3.35;;;;;;;20.94;34.81;94995.37;1685175;83;21244;-56
2022/05/05 10:11:32;;;;;;;5.50;3.90;;;;;;;21.32;34.27;94991.13;1691213;84;21018;-57
2022/05/05 10:14:04;;;;;;;4.53;3.65;;;;;;;21.73;34.84;94987.14;1694563;84;21009;-54
2022/05/05 10:16:31;;;;;;;5.33;3.60;;;;;;;22.06;34.85;94979.38;1676338;84;21109;-56
2022/05/05 10:18:59;;;;;;;5.65;4.30;;;;;;;22.31;31.89;94988.81;1697836;84;21505;-57
2022/05/05 10:21:49;;;;;;;4.17;3.30;;;;;;;22.24;32.31;94978.16;1671143;84;21429;-56
2022/05/05 10:24:35;;;;;;;8.38;4.22;;;;;;;22.35;32.99;94986.52;1678252;84;21053;-57
2022/05/05 10:27:04;;;;;;;6.55;4.70;;;;;;;22.69;34.31;94985.05;1681240;84;21124;-57
2022/05/05 10:29:41;;;;;;;7.97;3.98;;;;;;;23.02;34.02;94987.63;1701458;83;21077;-55
2022/05/05 10:32:28;;;;;;;5.03;3.87;;;;;;;23.15;34.44;94989.22;1670886;84;21101;-57
2022/05/05 10:35:14;;;;;;;6.58;4.00;;;;;;;23.03;32.15;94989.14;1678773;84;21834;-56
2022/05/05 10:37:41;;;;;;;7.62;3.95;;;;;;;23.01;33.39;94989.56;1683436;84;21022;-56
2022/05/05 10:40:09;;;;;;;7.15;4.03;;;;;;;22.83;32.98;94989.55;1679728;84;21077;-56
2022/05/05 10:42:45;;;;;;;8.75;3.67;;;;;;;22.70;31.59;94993.59;1680761;84;21565;-56
2022/05/05 10:45:19;;;;;;;4.95;3.30;;;;;;;22.56;30.59;94992.54;1687904;84;21625;-56
2022/05/05 10:50:50;;;;;;;5.45;3.50;;;;;;;22.75;30.27;94990.63;1681661;84;21022;-58
2022/05/05 10:53:31;;;;;;;6.33;3.52;;;;;;;23.18;30.78;94979.74;1682780;83;21056;-58
2022/05/05 10:55:59;;;;;;;;;;;;;;;23.69;29.19;94985.77;1685034;84;21057;-58
2022/05/05 10:59:06;;;;;;;4.97;3.27;;;;;;;24.04;29.08;94984.27;1680572;84;20271;-56
2022/05/05 11:01:50;;;;;;;9.00;3.83;;;;;;;24.23;28.12;94983.64;1697839;84;21878;-57
2022/05/05 11:04:24;;;;;;;6.00;3.27;;;;;;;24.49;29.09;94985.98;1680535;84;21088;-56
2022/05/05 11:07:25;;;;;;;10.88;3.92;;;;;;;25.03;29.97;94984.33;1685203;84;21046;-57
2022/05/05 11:09:51;;;;;;;4.70;3.50;;;;;;;25.32;28.76;94981.30;1653418;84;21014;-58
2022/05/05 11:12:22;;;;;;;13.62;3.25;;;;;;;25.93;29.93;94976.02;1648340;84;21977;-53
2022/05/05 11:23:47;;;;;;;7.97;3.50;;;;;;;27.48;25.37;94981.31;1682768;83;21084;-61
2022/05/05 11:26:17;;;;;;;8.10;3.20;;;;;;;27.34;24.70;94979.09;1676927;84;21109;-59
2022/05/05 11:28:45;;;;;;;8.83;3.75;;;;;;;27.32;25.23;94979.66;1675705;84;21984;-58
2022/05/05 11:31:30;;;;;;;5.87;3.20;;;;;;;27.56;24.46;94979.30;1688618;84;21080;-58
2022/05/05 11:34:03;;;;;;;4.78;2.95;;;;;;;27.96;25.61;94977.75;1696724;83;21069;-59
2022/05/05 11:36:33;;;;;;;3.55;2.90;;;;;;;28.43;25.50;94981.09;1687787;84;21148;-59
2022/05/05 11:39:00;;;;;;;4.87;3.58;;;;;;;28.64;25.03;94976.09;1664628;84;21518;-59
2022/05/05 11:41:28;;;;;;;5.60;3.00;;;;;;;28.77;24.94;94974.55;1684584;84;21101;-57
2022/05/05 11:46:40;;;;;;;3.65;2.83;;;;;;;29.26;26.02;94973.00;1680328;84;21045;-58
2022/05/05 11:49:09;;;;;;;4.70;3.30;;;;;;;29.36;24.99;94971.14;1689113;84;21537;-58
2022/05/05 11:51:37;;;;;;;4.17;2.62;;;;;;;29.49;24.99;94973.06;1669673;84;21517;-59
2022/05/05 11:54:10;;;;;;;8.70;3.83;;;;;;;29.80;24.33;94971.73;1678393;84;21113;-60
2022/05/05 11:56:43;;;;;;;3.92;2.85;;;;;;;30.07;24.39;94970.14;1691385;84;21096;-57
2022/05/05 12:02:19;;;;;;;6.12;3.42;;;;;;;30.10;23.51;94969.00;1670497;84;21080;-59
2022/05/05 12:04:54;;;;;;;5.42;2.95;;;;;;;29.92;24.42;94960.19;1683886;84;21092;-58
2022/05/05 12:07:23;;;;;;;5.75;3.15;;;;;;;30.29;23.96;94972.17;1684992;84;21100;-59
2022/05/05 12:09:57;;;;;;;6.17;4.10;;;;;;;30.48;22.66;94968.24;1683464;84;21046;-57
2022/05/05 12:12:29;;;;;;;11.12;3.45;;;;;;;30.46;23.03;94968.74;1686208;83;21671;-57
2022/05/05 12:15:06;;;;;;;7.72;3.98;;;;;;;30.49;21.20;94964.75;1683954;83;21097;-57
2022/05/05 12:17:41;;;;;;;6.50;3.40;;;;;;;30.16;21.00;94961.03;1685847;83;21665;-59
2022/05/05 12:20:11;;;;;;;13.25;7.55;;;;;;;29.45;21.70;94955.62;1687680;83;22028;-59
2022/05/05 12:22:39;;;;;;;8.73;4.20;;;;;;;28.88;22.91;94956.55;1676145;83;21552;-59
2022/05/05 12:25:14;;;;;;;10.43;4.00;;;;;;;28.59;24.03;94957.94;1682949;83;21085;-58
2022/05/05 12:27:59;;;;;;;6.97;3.83;;;;;;;28.29;23.93;94952.77;1685049;83;21114;-59
2022/05/05 12:30:35;;;;;;;6.28;3.67;;;;;;;28.00;24.01;94952.71;1665062;83;21054;-59
2022/05/05 12:33:03;;;;;;;8.53;3.85;;;;;;;27.47;24.60;94952.17;1679625;83;21085;-60